createdAt,value
2019-02-27T00:00:47.690Z,33.80
2019-02-27T00:02:49.102Z,34.20
2019-02-27T00:04:50.473Z,32.13
2019-02-27T00:06:52.045Z,33.45
2019-02-27T00:08:53.545Z,30.80
2019-02-27T00:10:54.958Z,30.80
2019-02-27T00:12:56.347Z,28.92
2019-02-27T00:14:57.750Z,27.70
2019-02-27T00:16:59.127Z,25.15
2019-02-27T00:19:00.542Z,23.05
2019-02-27T00:21:01.909Z,22.80
2019-02-27T00:23:03.346Z,24.80
2019-02-27T00:25:04.973Z,22.75
2019-02-27T00:27:06.422Z,23.40
2019-02-27T00:29:07.832Z,26.55
2019-02-27T00:31:11.553Z,25.17
2019-02-27T00:33:12.580Z,28.27
2019-02-27T00:35:14.149Z,29.30
2019-02-27T00:37:18.727Z,35.83
2019-02-27T00:39:18.818Z,38.05
2019-02-27T00:41:20.214Z,33.85
2019-02-27T00:43:21.601Z,31.35
2019-02-27T00:45:23.240Z,32.30
2019-02-27T00:47:24.664Z,34.20
2019-02-27T00:49:26.047Z,31.12
2019-02-27T00:51:27.428Z,32.85
2019-02-27T00:53:28.861Z,31.80
2019-02-27T00:55:30.316Z,28.25
2019-02-27T00:57:31.661Z,32.15
2019-02-27T00:59:33.674Z,32.50
2019-02-27T01:01:35.123Z,32.15
2019-02-27T01:03:36.489Z,29.98
2019-02-27T01:05:40.933Z,28.92
2019-02-27T01:07:41.171Z,30.25
2019-02-27T01:09:42.545Z,30.43
2019-02-27T01:11:43.932Z,32.10
2019-02-27T01:13:45.323Z,28.75
2019-02-27T01:15:46.709Z,33.73
2019-02-27T01:17:48.124Z,34.18
2019-02-27T01:19:49.548Z,33.63
2019-02-27T01:21:50.925Z,37.17
2019-02-27T01:23:52.313Z,34.80
2019-02-27T01:25:56.077Z,35.52
2019-02-27T01:27:57.075Z,37.45
2019-02-27T01:29:58.460Z,38.38
2019-02-27T01:31:59.849Z,35.28
2019-02-27T01:34:01.233Z,35.17
2019-02-27T01:36:02.937Z,31.97
2019-02-27T01:38:05.319Z,35.20
2019-02-27T01:40:11.214Z,32.88
2019-02-27T01:42:12.588Z,32.78
2019-02-27T01:44:14.306Z,35.92
2019-02-27T01:46:15.790Z,34.53
2019-02-27T01:48:17.183Z,35.00
2019-02-27T01:50:25.955Z,31.97
2019-02-27T01:52:27.350Z,35.70
2019-02-27T01:54:28.755Z,33.30
2019-02-27T01:56:30.104Z,34.98
2019-02-27T01:58:31.497Z,32.70
2019-02-27T02:00:33.381Z,31.52
2019-02-27T02:02:34.955Z,31.12
2019-02-27T02:04:38.078Z,31.20
2019-02-27T02:06:39.424Z,31.33
2019-02-27T02:08:40.901Z,33.58
2019-02-27T02:10:42.295Z,30.77
2019-02-27T02:12:48.186Z,30.82
2019-02-27T02:15:01.152Z,30.48
2019-02-27T02:17:26.364Z,30.88
2019-02-27T02:19:39.493Z,32.45
2019-02-27T02:22:14.190Z,28.73
2019-02-27T02:24:45.283Z,31.57
2019-02-27T02:26:55.202Z,26.48
2019-02-27T02:29:53.130Z,31.85
2019-02-27T02:32:06.547Z,29.98
2019-02-27T02:34:22.050Z,27.40
2019-02-27T02:37:06.709Z,29.70
2019-02-27T02:39:27.913Z,27.27
2019-02-27T02:41:49.974Z,32.38
2019-02-27T02:44:09.117Z,30.17
2019-02-27T02:46:45.463Z,31.33
2019-02-27T02:49:08.707Z,31.62
2019-02-27T02:51:35.419Z,29.50
2019-02-27T02:53:51.229Z,29.07
2019-02-27T02:56:24.003Z,28.52
2019-02-27T02:58:58.878Z,26.87
2019-02-27T03:01:15.450Z,28.25
2019-02-27T03:03:36.154Z,29.02
2019-02-27T03:05:58.580Z,28.40
2019-02-27T03:08:09.570Z,31.33
2019-02-27T03:10:42.872Z,33.55
2019-02-27T03:13:11.454Z,33.10
2019-02-27T03:15:30.336Z,34.75
2019-02-27T03:17:46.497Z,34.15
2019-02-27T03:20:31.942Z,34.75
2019-02-27T03:23:15.305Z,36.95
2019-02-27T03:25:45.620Z,37.15
2019-02-27T03:28:10.686Z,40.30
2019-02-27T03:30:37.569Z,38.15
2019-02-27T03:32:58.794Z,38.02
2019-02-27T03:35:33.075Z,37.90
2019-02-27T03:37:40.219Z,39.63
2019-02-27T03:40:11.931Z,37.28
2019-02-27T03:42:21.819Z,37.75
2019-02-27T03:44:29.050Z,37.17
2019-02-27T03:47:16.607Z,38.15
2019-02-27T03:49:44.300Z,41.73
2019-02-27T03:52:16.632Z,41.40
2019-02-27T03:54:57.021Z,38.67
2019-02-27T03:57:11.243Z,39.70
2019-02-27T03:59:27.079Z,37.25
2019-02-27T04:02:09.187Z,40.58
2019-02-27T04:04:22.499Z,38.67
2019-02-27T04:06:53.045Z,38.95
2019-02-27T04:08:56.081Z,35.60
2019-02-27T04:10:57.460Z,40.03
2019-02-27T04:12:58.854Z,39.98
2019-02-27T04:15:00.397Z,36.73
2019-02-27T04:17:06.176Z,34.40
2019-02-27T04:19:05.757Z,37.60
2019-02-27T04:21:07.465Z,38.78
2019-02-27T04:23:12.481Z,39.03
2019-02-27T04:25:12.120Z,36.73
2019-02-27T04:27:20.053Z,38.00
2019-02-27T04:29:16.840Z,34.83
2019-02-27T04:31:18.233Z,33.90
2019-02-27T04:33:23.269Z,30.72
2019-02-27T04:35:23.387Z,33.05
2019-02-27T04:37:24.832Z,33.10
2019-02-27T04:39:26.442Z,28.90
2019-02-27T04:41:27.809Z,29.65
2019-02-27T04:43:31.983Z,28.12
2019-02-27T04:45:32.461Z,30.02
2019-02-27T04:47:33.825Z,29.35
2019-02-27T04:49:37.718Z,31.68
2019-02-27T04:51:38.575Z,34.05
2019-02-27T04:53:40.816Z,31.57
2019-02-27T04:55:42.333Z,30.00
2019-02-27T04:57:43.750Z,32.08
2019-02-27T04:59:45.593Z,32.53
2019-02-27T05:01:47.797Z,32.30
2019-02-27T05:03:49.208Z,29.67
2019-02-27T05:05:50.621Z,28.52
2019-02-27T05:07:54.228Z,31.65
2019-02-27T05:09:55.365Z,27.73
2019-02-27T05:11:56.791Z,29.18
2019-02-27T05:13:58.152Z,31.65
2019-02-27T05:15:59.517Z,32.67
2019-02-27T05:18:00.926Z,31.35
2019-02-27T05:20:05.994Z,30.15
2019-02-27T05:22:07.354Z,28.70
2019-02-27T05:24:08.765Z,28.17
2019-02-27T05:26:10.133Z,30.30
2019-02-27T05:28:11.526Z,29.40
2019-02-27T05:30:12.927Z,29.35
2019-02-27T05:32:14.287Z,27.42
2019-02-27T05:34:15.629Z,31.37
2019-02-27T05:36:17.038Z,28.47
2019-02-27T05:38:18.397Z,31.25
2019-02-27T05:40:19.776Z,28.00
2019-02-27T05:42:21.145Z,28.32
2019-02-27T05:44:22.541Z,26.27
2019-02-27T05:46:23.894Z,26.37
2019-02-27T05:48:25.326Z,27.45
2019-02-27T05:50:26.873Z,28.35
2019-02-27T05:52:28.221Z,25.52
2019-02-27T05:54:29.958Z,26.30
2019-02-27T05:56:33.047Z,27.15
2019-02-27T05:58:34.413Z,26.02
2019-02-27T06:00:35.791Z,25.70
2019-02-27T06:02:37.184Z,27.95
2019-02-27T06:04:38.543Z,27.67
2019-02-27T06:06:40.142Z,28.52
2019-02-27T06:08:41.481Z,26.25
2019-02-27T06:10:42.819Z,29.55
2019-02-27T06:12:44.228Z,28.20
2019-02-27T06:14:45.578Z,26.68
2019-02-27T06:16:46.919Z,26.70
2019-02-27T06:18:48.309Z,27.85
2019-02-27T06:20:49.676Z,29.20
2019-02-27T06:22:51.064Z,27.27
2019-02-27T06:24:52.455Z,26.93
2019-02-27T06:26:53.899Z,27.45
2019-02-27T06:28:55.291Z,29.27
2019-02-27T06:30:56.745Z,28.17
2019-02-27T06:32:58.139Z,28.25
2019-02-27T06:34:59.991Z,25.75
2019-02-27T06:37:01.402Z,24.77
2019-02-27T06:39:05.073Z,27.30
2019-02-27T06:41:06.751Z,26.75
2019-02-27T06:43:08.116Z,27.50
2019-02-27T06:45:13.299Z,25.25
2019-02-27T06:47:14.687Z,27.55
2019-02-27T06:49:18.244Z,26.17
2019-02-27T06:51:19.344Z,30.00
2019-02-27T06:53:20.678Z,26.40
2019-02-27T06:55:22.393Z,27.95
2019-02-27T06:57:23.747Z,27.55
2019-02-27T06:59:25.687Z,26.42
2019-02-27T07:01:27.217Z,29.20
2019-02-27T07:03:29.555Z,29.63
2019-02-27T07:05:31.821Z,27.32
2019-02-27T07:07:33.219Z,28.17
2019-02-27T07:09:34.603Z,28.47
2019-02-27T07:11:36.046Z,28.55
2019-02-27T07:13:37.409Z,30.85
2019-02-27T07:15:38.804Z,29.12
2019-02-27T07:17:40.153Z,26.48
2019-02-27T07:19:41.530Z,25.65
2019-02-27T07:21:42.928Z,31.57
2019-02-27T07:23:44.393Z,30.62
2019-02-27T07:25:45.877Z,28.45
2019-02-27T07:27:47.275Z,28.15
2019-02-27T07:29:48.682Z,27.40
2019-02-27T07:31:52.061Z,26.48
2019-02-27T07:33:53.360Z,27.48
2019-02-27T07:35:54.722Z,30.08
2019-02-27T07:37:56.088Z,28.15
2019-02-27T07:39:57.493Z,30.55
2019-02-27T07:41:58.939Z,27.00
2019-02-27T07:44:00.380Z,29.10
2019-02-27T07:46:01.810Z,28.45
2019-02-27T07:48:03.193Z,26.70
2019-02-27T07:50:09.900Z,28.55
2019-02-27T07:52:11.272Z,29.42
2019-02-27T07:54:12.638Z,25.88
2019-02-27T07:56:14.062Z,28.17
2019-02-27T07:58:15.419Z,27.20
2019-02-27T08:00:21.307Z,26.97
2019-02-27T08:02:22.700Z,26.90
2019-02-27T08:04:24.086Z,27.48
2019-02-27T08:06:25.467Z,26.55
2019-02-27T08:08:26.863Z,30.00
2019-02-27T08:10:28.210Z,28.80
2019-02-27T08:12:29.604Z,27.27
2019-02-27T08:14:30.999Z,29.53
2019-02-27T08:16:32.651Z,34.23
2019-02-27T08:18:37.650Z,30.30
2019-02-27T08:20:37.436Z,26.10
2019-02-27T08:22:38.830Z,27.57
2019-02-27T08:24:40.232Z,26.97
2019-02-27T08:26:41.633Z,25.67
2019-02-27T08:28:42.994Z,29.33
2019-02-27T08:30:44.355Z,28.00
2019-02-27T08:32:45.845Z,27.10
2019-02-27T08:34:47.186Z,26.93
2019-02-27T08:36:48.542Z,28.70
2019-02-27T08:38:49.938Z,26.93
2019-02-27T08:40:51.283Z,26.97
2019-02-27T08:42:52.639Z,26.77
2019-02-27T08:44:54.041Z,27.00
2019-02-27T08:46:55.453Z,26.23
2019-02-27T08:48:56.819Z,24.40
2019-02-27T08:50:58.182Z,26.80
2019-02-27T08:52:59.591Z,27.17
2019-02-27T08:55:05.430Z,26.70
2019-02-27T08:57:04.266Z,26.17
2019-02-27T08:59:06.089Z,26.30
2019-02-27T09:01:08.940Z,28.77
2019-02-27T09:03:19.769Z,27.23
2019-02-27T09:05:13.801Z,29.57
2019-02-27T09:07:15.172Z,28.77
2019-02-27T09:09:17.929Z,27.17
2019-02-27T09:11:19.899Z,26.33
2019-02-27T09:13:21.336Z,26.50
2019-02-27T09:15:22.721Z,27.37
2019-02-27T09:17:26.825Z,25.63
2019-02-27T09:19:27.725Z,26.17
2019-02-27T09:21:29.498Z,26.20
2019-02-27T09:23:31.398Z,27.60
2019-02-27T09:25:33.203Z,26.83
2019-02-27T09:27:35.341Z,25.50
2019-02-27T09:29:37.017Z,25.13
2019-02-27T09:31:38.570Z,26.80
2019-02-27T09:33:40.032Z,26.67
2019-02-27T09:35:41.672Z,25.80
2019-02-27T09:37:43.051Z,26.60
2019-02-27T09:39:44.509Z,24.40
2019-02-27T09:41:46.896Z,24.50
2019-02-27T09:43:48.592Z,25.27
2019-02-27T09:45:49.946Z,25.80
2019-02-27T09:47:51.470Z,24.70
2019-02-27T09:49:52.838Z,27.40
2019-02-27T09:51:56.431Z,25.20
2019-02-27T09:53:57.541Z,25.87
2019-02-27T09:55:58.900Z,23.10
2019-02-27T09:58:00.742Z,26.87
2019-02-27T10:00:07.023Z,26.10
2019-02-27T10:02:09.007Z,25.03
2019-02-27T10:04:11.808Z,25.57
2019-02-27T10:06:13.284Z,24.37
2019-02-27T10:08:14.800Z,25.00
2019-02-27T10:10:16.382Z,28.13
2019-02-27T10:12:17.751Z,25.50
2019-02-27T10:14:19.198Z,27.27
2019-02-27T10:16:20.562Z,27.00
2019-02-27T10:18:22.205Z,25.23
2019-02-27T10:20:23.749Z,25.67
2019-02-27T10:22:25.154Z,26.33
2019-02-27T10:24:26.587Z,26.40
2019-02-27T10:26:27.953Z,25.77
2019-02-27T10:28:29.329Z,25.17
2019-02-27T10:30:30.844Z,25.90
2019-02-27T10:32:36.424Z,25.17
2019-02-27T10:34:36.290Z,27.90
2019-02-27T10:36:39.195Z,24.10
2019-02-27T10:38:40.719Z,27.00
2019-02-27T10:40:42.191Z,26.40
2019-02-27T10:42:43.601Z,25.33
2019-02-27T10:44:45.006Z,27.00
2019-02-27T10:46:46.484Z,25.50
2019-02-27T10:48:47.882Z,24.27
2019-02-27T10:50:49.278Z,26.03
2019-02-27T10:52:50.698Z,24.30
2019-02-27T10:54:52.087Z,24.20
2019-02-27T10:56:56.387Z,24.50
2019-02-27T10:58:56.800Z,24.47
2019-02-27T11:01:01.175Z,25.23
2019-02-27T11:03:01.441Z,24.67
2019-02-27T11:05:05.217Z,23.23
2019-02-27T11:07:06.620Z,21.73
2019-02-27T11:09:13.709Z,23.83
2019-02-27T11:11:16.396Z,24.30
2019-02-27T11:13:18.150Z,24.13
2019-02-27T11:15:21.440Z,21.83
2019-02-27T11:17:22.842Z,24.23
2019-02-27T11:19:24.223Z,22.10
2019-02-27T11:21:25.648Z,21.23
2019-02-27T11:23:27.058Z,23.37
2019-02-27T11:25:30.957Z,20.63
2019-02-27T11:27:32.341Z,21.23
2019-02-27T11:29:33.758Z,20.13
2019-02-27T11:31:35.186Z,20.17
2019-02-27T11:33:36.679Z,21.33
2019-02-27T11:35:38.055Z,21.70
2019-02-27T11:37:39.456Z,18.33
2019-02-27T11:39:40.872Z,21.60
2019-02-27T11:41:42.239Z,20.10
2019-02-27T11:43:43.644Z,18.00
2019-02-27T11:45:45.017Z,17.60
2019-02-27T11:47:48.076Z,17.70
2019-02-27T11:49:49.715Z,15.80
2019-02-27T11:51:53.234Z,17.47
2019-02-27T11:53:54.365Z,16.43
2019-02-27T11:55:56.097Z,19.10
2019-02-27T11:57:57.474Z,19.70
2019-02-27T11:59:58.855Z,20.17
2019-02-27T12:02:00.258Z,19.53
2019-02-27T12:04:01.705Z,19.80
2019-02-27T12:06:05.316Z,20.67
2019-02-27T12:08:06.372Z,19.33
2019-02-27T12:10:12.747Z,18.60
2019-02-27T12:12:14.161Z,17.17
2019-02-27T12:14:15.560Z,18.47
2019-02-27T12:16:18.544Z,21.33
2019-02-27T12:18:20.131Z,18.67
2019-02-27T12:20:22.106Z,19.70
2019-02-27T12:22:23.460Z,19.63
2019-02-27T12:24:24.883Z,17.63
2019-02-27T12:26:26.246Z,19.80
2019-02-27T12:28:27.620Z,19.30
2019-02-27T12:30:29.830Z,18.87
2019-02-27T12:32:31.199Z,17.27
2019-02-27T12:34:36.768Z,20.33
2019-02-27T12:36:35.853Z,18.77
2019-02-27T12:38:39.338Z,18.40
2019-02-27T12:40:40.522Z,18.80
2019-02-27T12:42:42.716Z,17.60
2019-02-27T12:44:44.635Z,16.80
2019-02-27T12:46:46.006Z,14.90
2019-02-27T12:48:47.404Z,17.20
2019-02-27T12:50:48.776Z,16.43
2019-02-27T12:52:50.191Z,14.83
2019-02-27T12:54:51.538Z,15.13
2019-02-27T12:56:52.913Z,13.83
2019-02-27T12:58:58.345Z,14.10
2019-02-27T13:00:57.604Z,14.83
2019-02-27T13:02:59.276Z,14.50
2019-02-27T13:05:00.886Z,12.37
2019-02-27T13:07:02.292Z,14.37
2019-02-27T13:09:04.860Z,14.23
2019-02-27T13:11:07.923Z,14.03
2019-02-27T13:13:09.568Z,13.40
2019-02-27T13:15:17.334Z,13.30
2019-02-27T13:17:21.415Z,12.10
2019-02-27T13:19:22.063Z,13.23
2019-02-27T13:21:23.514Z,14.13
2019-02-27T13:23:24.915Z,13.77
2019-02-27T13:25:26.287Z,13.07
2019-02-27T13:27:27.657Z,13.90
2019-02-27T13:29:29.064Z,12.43
2019-02-27T13:31:30.452Z,11.60
2019-02-27T13:33:32.943Z,13.70
2019-02-27T13:35:35.488Z,12.73
2019-02-27T13:37:36.987Z,13.70
2019-02-27T13:39:38.357Z,14.80
2019-02-27T13:41:42.371Z,12.33
2019-02-27T13:43:43.095Z,11.93
2019-02-27T13:45:47.386Z,12.60
2019-02-27T13:47:47.866Z,11.43
2019-02-27T13:49:49.256Z,13.07
2019-02-27T13:51:50.611Z,12.83
2019-02-27T13:53:51.986Z,13.40
2019-02-27T13:55:53.680Z,13.10
2019-02-27T13:57:58.771Z,14.43
2019-02-27T13:59:58.471Z,13.97
2019-02-27T14:02:00.698Z,13.50
2019-02-27T14:04:03.399Z,13.83
2019-02-27T14:06:06.270Z,11.00
2019-02-27T14:08:08.150Z,12.40
2019-02-27T14:10:17.131Z,12.37
2019-02-27T14:12:19.719Z,12.53
2019-02-27T14:14:21.131Z,11.67
2019-02-27T14:16:22.528Z,12.73
2019-02-27T14:18:23.919Z,12.20
2019-02-27T14:20:26.890Z,12.53
2019-02-27T14:22:28.632Z,11.17
2019-02-27T14:24:30.052Z,11.93
2019-02-27T14:26:31.423Z,11.80
2019-02-27T14:28:32.773Z,10.30
2019-02-27T14:30:49.878Z,11.03
2019-02-27T14:32:51.248Z,10.23
2019-02-27T14:34:52.623Z,9.40
2019-02-27T14:36:53.997Z,9.80
2019-02-27T14:38:56.492Z,10.23
2019-02-27T14:40:58.290Z,10.97
2019-02-27T14:42:59.774Z,10.37
2019-02-27T14:45:02.979Z,10.80
2019-02-27T14:47:04.437Z,11.30
2019-02-27T14:49:05.816Z,12.23
2019-02-27T14:51:08.032Z,11.07
2019-02-27T14:53:10.549Z,10.83
2019-02-27T14:55:14.316Z,10.70
2019-02-27T14:57:15.959Z,11.40
2019-02-27T14:59:18.256Z,11.00
2019-02-27T15:01:19.679Z,10.50
2019-02-27T15:03:21.095Z,10.80
2019-02-27T15:05:22.512Z,11.10
2019-02-27T15:07:23.885Z,9.93
2019-02-27T15:09:25.262Z,9.20
2019-02-27T15:11:26.688Z,9.63
2019-02-27T15:13:28.908Z,8.97
2019-02-27T15:15:31.622Z,8.40
2019-02-27T15:17:33.057Z,9.00
2019-02-27T15:19:35.505Z,8.80
2019-02-27T15:21:37.015Z,9.33
2019-02-27T15:23:38.605Z,8.87
2019-02-27T15:25:43.072Z,8.70
2019-02-27T15:27:43.379Z,9.90
2019-02-27T15:29:44.774Z,9.57
2019-02-27T15:31:46.134Z,9.10
2019-02-27T15:33:47.524Z,9.77
2019-02-27T15:35:48.917Z,8.60
2019-02-27T15:37:50.452Z,10.07
2019-02-27T15:39:54.752Z,10.40
2019-02-27T15:41:55.074Z,9.77
2019-02-27T15:44:00.226Z,9.00
2019-02-27T15:45:59.737Z,10.53
2019-02-27T15:48:06.663Z,9.30
2019-02-27T15:50:12.514Z,10.27
2019-02-27T15:52:13.883Z,10.60
2019-02-27T15:54:15.246Z,9.43
2019-02-27T15:56:16.649Z,10.23
2019-02-27T15:58:18.001Z,10.63
2019-02-27T16:00:23.169Z,10.20
2019-02-27T16:02:24.618Z,9.77
2019-02-27T16:04:26.000Z,9.80
2019-02-27T16:06:27.340Z,10.50
2019-02-27T16:08:28.823Z,10.50
2019-02-27T16:10:30.186Z,11.87
2019-02-27T16:12:31.559Z,9.03
2019-02-27T16:14:32.934Z,10.10
2019-02-27T16:16:34.267Z,8.57
2019-02-27T16:18:36.923Z,9.53
2019-02-27T16:20:38.932Z,10.17
2019-02-27T16:22:40.292Z,11.10
2019-02-27T16:24:43.817Z,10.50
2019-02-27T16:26:44.981Z,10.10
2019-02-27T16:28:49.002Z,10.97
2019-02-27T16:30:49.655Z,10.63
2019-02-27T16:32:51.136Z,10.27
2019-02-27T16:34:52.522Z,9.57
2019-02-27T16:36:53.883Z,10.30
2019-02-27T16:38:55.232Z,9.30
2019-02-27T16:40:56.635Z,8.83
2019-02-27T16:42:58.043Z,8.80
2019-02-27T16:44:59.400Z,9.90
2019-02-27T16:47:02.853Z,9.43
2019-02-27T16:49:09.844Z,10.80
2019-02-27T16:51:07.591Z,9.93
2019-02-27T16:53:08.941Z,10.70
2019-02-27T16:55:14.037Z,11.23
2019-02-27T16:57:15.431Z,13.10
2019-02-27T16:59:16.837Z,18.87
2019-02-27T17:01:18.917Z,20.17
2019-02-27T17:03:20.917Z,34.20
2019-02-27T17:05:22.316Z,151.50
2019-02-27T17:07:26.044Z,64.47
2019-02-27T17:09:26.937Z,29.40
2019-02-27T17:11:29.469Z,20.43
2019-02-27T17:13:31.608Z,15.00
2019-02-27T17:15:35.776Z,15.70
2019-02-27T17:17:36.304Z,13.13
2019-02-27T17:19:37.672Z,13.80
2019-02-27T17:21:39.071Z,12.77
2019-02-27T17:23:43.753Z,11.53
2019-02-27T17:25:43.754Z,11.20
2019-02-27T17:27:49.830Z,10.97
2019-02-27T17:29:48.413Z,9.93
2019-02-27T17:31:55.333Z,10.07
2019-02-27T17:33:53.097Z,10.73
2019-02-27T17:35:58.535Z,10.93
2019-02-27T17:37:58.355Z,9.20
2019-02-27T17:40:02.284Z,10.73
2019-02-27T17:42:03.151Z,10.63
2019-02-27T17:44:05.350Z,10.03
2019-02-27T17:46:06.874Z,8.73
2019-02-27T17:48:09.319Z,8.63
2019-02-27T17:50:14.329Z,9.50
2019-02-27T17:52:15.725Z,10.37
2019-02-27T17:54:17.201Z,10.33
2019-02-27T17:56:18.607Z,9.23
2019-02-27T17:58:19.975Z,8.83
2019-02-27T18:00:43.280Z,11.33
2019-02-27T18:02:44.667Z,8.73
2019-02-27T18:04:51.064Z,16.87
2019-02-27T18:06:49.335Z,55.80
2019-02-27T18:08:52.430Z,60.07
2019-02-27T18:10:53.959Z,49.37
2019-02-27T18:12:55.317Z,56.67
2019-02-27T18:14:56.734Z,51.10
2019-02-27T18:16:59.197Z,35.60
2019-02-27T18:19:01.575Z,15.97
2019-02-27T18:21:03.044Z,13.50
2019-02-27T18:23:04.455Z,12.97
2019-02-27T18:25:10.400Z,12.43
2019-02-27T18:27:11.829Z,13.00
2019-02-27T18:29:13.197Z,12.30
2019-02-27T18:31:14.595Z,13.37
2019-02-27T18:33:17.457Z,14.57
2019-02-27T18:35:19.367Z,15.63
2019-02-27T18:37:20.782Z,15.50
2019-02-27T18:39:22.151Z,17.57
2019-02-27T18:41:23.518Z,15.90
2019-02-27T18:43:27.162Z,16.50
2019-02-27T18:45:28.297Z,17.97
2019-02-27T18:47:32.140Z,15.83
2019-02-27T18:49:32.993Z,16.00
2019-02-27T18:51:34.438Z,14.03
2019-02-27T18:53:35.796Z,11.70
2019-02-27T18:55:37.265Z,9.90
2019-02-27T18:57:39.117Z,10.23
2019-02-27T18:59:40.660Z,10.60
2019-02-27T19:01:45.169Z,11.13
2019-02-27T19:03:45.396Z,10.53
2019-02-27T19:05:46.993Z,12.20
2019-02-27T19:07:48.356Z,10.97
2019-02-27T19:09:49.693Z,11.70
2019-02-27T19:11:51.605Z,12.10
2019-02-27T19:13:53.202Z,11.27
2019-02-27T19:15:54.554Z,11.00
2019-02-27T19:17:56.197Z,10.33
2019-02-27T19:19:57.618Z,10.03
2019-02-27T19:21:59.202Z,11.17
2019-02-27T19:24:00.558Z,10.73
2019-02-27T19:26:01.993Z,10.60
2019-02-27T19:28:03.638Z,10.03
2019-02-27T19:30:12.358Z,9.73
2019-02-27T19:32:13.867Z,11.27
2019-02-27T19:34:15.235Z,11.00
2019-02-27T19:36:19.463Z,11.40
2019-02-27T19:38:19.922Z,10.90
2019-02-27T19:40:23.494Z,11.13
2019-02-27T19:42:24.940Z,10.97
2019-02-27T19:44:29.227Z,10.50
2019-02-27T19:46:29.695Z,10.47
2019-02-27T19:48:31.142Z,12.40
2019-02-27T19:50:32.516Z,10.37
2019-02-27T19:52:33.889Z,11.20
2019-02-27T19:54:35.305Z,10.57
2019-02-27T19:56:37.045Z,11.00
2019-02-27T19:58:38.409Z,11.20
2019-02-27T20:00:48.044Z,10.20
2019-02-27T20:02:43.215Z,10.63
2019-02-27T20:04:46.005Z,9.33
2019-02-27T20:06:47.556Z,10.03
2019-02-27T20:08:48.987Z,10.90
2019-02-27T20:10:50.551Z,11.07
2019-02-27T20:12:53.716Z,10.77
2019-02-27T20:14:55.454Z,10.60
2019-02-27T20:16:56.819Z,9.70
2019-02-27T20:18:58.287Z,9.77
2019-02-27T20:21:00.096Z,11.17
2019-02-27T20:23:01.483Z,11.47
2019-02-27T20:25:09.342Z,12.53
2019-02-27T20:27:10.985Z,11.80
2019-02-27T20:29:12.347Z,10.60
2019-02-27T20:31:17.931Z,12.50
2019-02-27T20:33:17.012Z,10.60
2019-02-27T20:35:20.814Z,12.23
2019-02-27T20:37:22.100Z,11.33
2019-02-27T20:39:24.433Z,12.33
2019-02-27T20:41:26.075Z,13.43
2019-02-27T20:43:29.451Z,12.93
2019-02-27T20:45:30.695Z,13.10
2019-02-27T20:47:32.233Z,11.50
2019-02-27T20:49:33.606Z,11.97
2019-02-27T20:51:39.743Z,12.57
2019-02-27T20:53:38.293Z,12.30
2019-02-27T20:55:39.635Z,13.13
2019-02-27T20:57:42.279Z,14.60
2019-02-27T20:59:44.320Z,12.83
2019-02-27T21:01:47.328Z,12.10
2019-02-27T21:03:48.910Z,13.43
2019-02-27T21:05:50.373Z,13.07
2019-02-27T21:07:51.746Z,12.93
2019-02-27T21:09:53.096Z,12.57
2019-02-27T21:11:54.536Z,12.40
2019-02-27T21:13:55.882Z,14.63
2019-02-27T21:15:57.248Z,13.20
2019-02-27T21:17:58.855Z,13.97
2019-02-27T21:20:00.454Z,13.87
2019-02-27T21:22:01.790Z,13.33
2019-02-27T21:24:06.229Z,13.40
2019-02-27T21:26:06.626Z,14.13
2019-02-27T21:28:08.025Z,18.27
2019-02-27T21:30:21.934Z,17.23
2019-02-27T21:32:23.264Z,13.40
2019-02-27T21:34:24.721Z,16.90
2019-02-27T21:36:26.233Z,15.40
2019-02-27T21:38:27.577Z,14.33
2019-02-27T21:40:28.989Z,13.93
2019-02-27T21:42:32.652Z,14.37
2019-02-27T21:44:33.733Z,16.07
2019-02-27T21:46:35.104Z,15.03
2019-02-27T21:48:36.463Z,15.60
2019-02-27T21:50:39.934Z,15.30
2019-02-27T21:52:41.233Z,15.10
2019-02-27T21:54:42.626Z,14.20
2019-02-27T21:56:44.022Z,15.20
2019-02-27T21:58:45.504Z,15.30
2019-02-27T22:00:48.181Z,16.30
2019-02-27T22:02:52.780Z,15.07
2019-02-27T22:04:54.148Z,15.10
2019-02-27T22:06:58.413Z,15.30
2019-02-27T22:08:58.816Z,15.47
2019-02-27T22:11:00.175Z,16.60
2019-02-27T22:13:01.548Z,14.13
2019-02-27T22:15:09.641Z,13.77
2019-02-27T22:17:11.008Z,13.93
2019-02-27T22:19:12.546Z,14.50
2019-02-27T22:21:14.334Z,15.37
2019-02-27T22:23:15.789Z,14.60
2019-02-27T22:25:17.176Z,13.80
2019-02-27T22:27:18.567Z,14.57
2019-02-27T22:29:20.287Z,14.60
2019-02-27T22:31:21.653Z,16.70
2019-02-27T22:33:23.181Z,15.87
2019-02-27T22:35:24.613Z,16.00
2019-02-27T22:37:26.039Z,15.30
2019-02-27T22:39:27.399Z,17.50
2019-02-27T22:41:28.787Z,16.27
2019-02-27T22:43:30.177Z,16.43
2019-02-27T22:45:31.539Z,16.20
2019-02-27T22:47:32.893Z,16.50
2019-02-27T22:49:34.290Z,15.30
2019-02-27T22:51:35.695Z,17.10
2019-02-27T22:53:37.079Z,17.83
2019-02-27T22:55:38.555Z,16.45
2019-02-27T22:57:39.898Z,14.70
2019-02-27T22:59:41.272Z,16.50
2019-02-27T23:01:49.248Z,15.10
2019-02-27T23:03:54.987Z,17.73
2019-02-27T23:05:56.868Z,16.07
2019-02-27T23:07:58.531Z,16.20
2019-02-27T23:09:59.999Z,16.00
2019-02-27T23:12:01.464Z,15.57
2019-02-27T23:14:03.253Z,15.33
2019-02-27T23:16:04.674Z,15.27
2019-02-27T23:18:06.838Z,16.10
2019-02-27T23:20:08.541Z,16.67
2019-02-27T23:22:09.953Z,17.20
2019-02-27T23:24:11.376Z,16.47
2019-02-27T23:26:12.740Z,17.97
2019-02-27T23:28:14.157Z,17.70
2019-02-27T23:30:16.154Z,16.50
2019-02-27T23:32:17.590Z,17.17
2019-02-27T23:34:19.195Z,18.35
2019-02-27T23:36:22.030Z,18.12
2019-02-27T23:38:23.849Z,16.62
2019-02-27T23:40:25.223Z,16.40
2019-02-27T23:42:27.902Z,18.07
2019-02-27T23:44:29.862Z,17.63
2019-02-27T23:46:31.221Z,15.70
2019-02-27T23:48:35.852Z,18.15
2019-02-27T23:50:35.910Z,17.77
2019-02-27T23:52:37.280Z,15.75
2019-02-27T23:54:38.691Z,16.17
2019-02-27T23:56:40.071Z,16.97
2019-02-27T23:58:41.442Z,17.03
